Aérodrome :
LOGIN :

S'inscrire | Disclaimer

   EN    FR    IT 

 










Légende :    VFR   VFR Marginal   IFR   IFR Intensif   IFR Très Intensif
Visi : 
Plafond : 
>= 8 km
>= 3000ft
5 à 8 km
1000 à 3000 ft
1500m à 5 km
500 à 1000 ft
800 à 1500m
200 à 500 ft
< 800m
< 200 ft
Symboles :   Orages  Brouillard  Fortes neiges  Fortes précipitations  Vent > 20 kt
SIGMETs :   Divers  Orages  Givrage  Turbulence  Onde Orograph.  Cendres Volcan.







- Altitude de l'aérodrome : 158 ft
- Code IATA : QAR


EHDL - Deelen Airbase

DERNIER METAR :
  • 250825Z AUTO 27010KT 200V330 9999 FEW013 SCT025 OVC042 10/07 Q1009 BLU

METARs EXPIRÉS :
  • 250755Z AUTO 28011KT 240V350 9999 FEW015 SCT027 OVC042 11/08 Q1009 BLU
  • 250725Z AUTO 28011KT 230V350 9999 FEW017 BKN042 OVC046 11/08 Q1008 BLU
  • 250655Z AUTO 27010KT 200V340 9999 FEW011 OVC051 10/08 Q1008 BLU
  • 250625Z AUTO 28011KT 230V340 9999 FEW009 SCT010 BKN012 11/09 Q1008 REDZ GRN
  • 250555Z AUTO 26011KT 210V310 6000 DZ FEW007 SCT009 BKN024 11/10 Q1007 GRN

Prévision TAF périmée.
Pas de NOTAMs connus pour ce terrain.



MET'MAP, la Météo Aéronautique d'un coup d'oeil ! - Copyright ORBIFLY Décembre 2007 - Disclaimer

ORBIFLY MET'MAP TEAM :

Programmation & Développement : Alexandra Zaïnal
Conception & Développement : Baudouin d'Aumeries
Co-Programmation & Développement : Marc-Olivier Méhu
Soutien technique & logistique : Manuel Goepfert

Contact : metmap@orbifly.com




SOURCES & CREDITS :

   NOAA